sensor_id;sensor_type;location;lat;lon;timestamp;pressure;altitude;pressure_sealevel;temperature;humidity
48015;BME280;33780;51.034;7.120;2023-02-04T00:02:17;102266.00;;;9.22;72.96
48015;BME280;33780;51.034;7.120;2023-02-04T00:04:42;102262.56;;;9.20;72.95
48015;BME280;33780;51.034;7.120;2023-02-04T00:07:08;102277.66;;;9.21;73.46
48015;BME280;33780;51.034;7.120;2023-02-04T00:09:33;102286.59;;;9.20;72.81
48015;BME280;33780;51.034;7.120;2023-02-04T00:11:58;102280.41;;;9.20;73.41
48015;BME280;33780;51.034;7.120;2023-02-04T00:14:23;102287.56;;;9.19;73.08
48015;BME280;33780;51.034;7.120;2023-02-04T00:16:49;102287.66;;;9.18;72.76
48015;BME280;33780;51.034;7.120;2023-02-04T00:19:14;102292.25;;;9.14;72.26
48015;BME280;33780;51.034;7.120;2023-02-04T00:21:41;102285.19;;;9.13;73.17
48015;BME280;33780;51.034;7.120;2023-02-04T00:24:06;102294.88;;;9.16;73.07
48015;BME280;33780;51.034;7.120;2023-02-04T00:26:32;102289.44;;;9.17;73.13
48015;BME280;33780;51.034;7.120;2023-02-04T00:28:57;102290.22;;;9.19;72.94
48015;BME280;33780;51.034;7.120;2023-02-04T00:31:23;102290.22;;;9.19;72.77
48015;BME280;33780;51.034;7.120;2023-02-04T00:33:49;102295.56;;;9.19;72.71
48015;BME280;33780;51.034;7.120;2023-02-04T00:36:14;102301.94;;;9.17;71.91
48015;BME280;33780;51.034;7.120;2023-02-04T00:38:40;102297.78;;;9.11;72.12
48015;BME280;33780;51.034;7.120;2023-02-04T00:41:06;102300.63;;;9.08;71.68
48015;BME280;33780;51.034;7.120;2023-02-04T00:43:31;102295.44;;;9.05;71.68
48015;BME280;33780;51.034;7.120;2023-02-04T00:45:56;102292.78;;;9.05;72.01
48015;BME280;33780;51.034;7.120;2023-02-04T00:48:22;102303.28;;;9.08;72.79
48015;BME280;33780;51.034;7.120;2023-02-04T00:50:47;102303.19;;;9.09;72.79
48015;BME280;33780;51.034;7.120;2023-02-04T00:53:13;102306.81;;;9.08;70.85
48015;BME280;33780;51.034;7.120;2023-02-04T00:55:38;102308.81;;;9.05;71.40
48015;BME280;33780;51.034;7.120;2023-02-04T00:58:03;102304.41;;;9.04;72.14
48015;BME280;33780;51.034;7.120;2023-02-04T01:00:29;102306.13;;;9.05;71.98
48015;BME280;33780;51.034;7.120;2023-02-04T01:02:54;102307.06;;;9.04;72.20
48015;BME280;33780;51.034;7.120;2023-02-04T01:05:19;102314.16;;;9.05;71.95
48015;BME280;33780;51.034;7.120;2023-02-04T01:07:45;102311.47;;;9.05;72.23
48015;BME280;33780;51.034;7.120;2023-02-04T01:10:10;102311.31;;;9.08;72.29
48015;BME280;33780;51.034;7.120;2023-02-04T01:12:36;102319.22;;;9.09;72.68
48015;BME280;33780;51.034;7.120;2023-02-04T01:15:01;102321.81;;;9.11;72.48
48015;BME280;33780;51.034;7.120;2023-02-04T01:17:26;102320.88;;;9.12;72.51
48015;BME280;33780;51.034;7.120;2023-02-04T01:19:52;102319.84;;;9.15;72.31
48015;BME280;33780;51.034;7.120;2023-02-04T01:22:17;102330.53;;;9.15;72.25
48015;BME280;33780;51.034;7.120;2023-02-04T01:24:43;102333.19;;;9.15;72.10
48015;BME280;33780;51.034;7.120;2023-02-04T01:27:08;102336.81;;;9.14;72.14
48015;BME280;33780;51.034;7.120;2023-02-04T01:29:33;102343.88;;;9.15;72.26
48015;BME280;33780;51.034;7.120;2023-02-04T01:31:59;102341.38;;;9.12;71.72
48015;BME280;33780;51.034;7.120;2023-02-04T01:34:24;102347.81;;;9.07;71.57
48015;BME280;33780;51.034;7.120;2023-02-04T01:36:52;102349.63;;;9.07;72.48
48015;BME280;33780;51.034;7.120;2023-02-04T01:39:17;102354.03;;;9.08;72.28
48015;BME280;33780;51.034;7.120;2023-02-04T01:41:43;102356.78;;;9.06;72.16
48015;BME280;33780;51.034;7.120;2023-02-04T01:44:08;102354.19;;;9.05;72.23
48015;BME280;33780;51.034;7.120;2023-02-04T01:46:37;102352.41;;;9.05;72.29
48015;BME280;33780;51.034;7.120;2023-02-04T01:49:04;102353.25;;;9.06;72.08
48015;BME280;33780;51.034;7.120;2023-02-04T01:51:31;102366.59;;;9.06;72.40
48015;BME280;33780;51.034;7.120;2023-02-04T01:53:58;102365.75;;;9.05;72.55
48015;BME280;33780;51.034;7.120;2023-02-04T01:56:25;102369.34;;;9.04;72.19
48015;BME280;33780;51.034;7.120;2023-02-04T01:58:52;102377.38;;;9.04;72.57
48015;BME280;33780;51.034;7.120;2023-02-04T02:01:41;102368.50;;;9.04;72.18
48015;BME280;33780;51.034;7.120;2023-02-04T02:04:09;102372.13;;;9.03;72.61
48015;BME280;33780;51.034;7.120;2023-02-04T02:06:40;102377.47;;;9.03;72.53
48015;BME280;33780;51.034;7.120;2023-02-04T02:09:06;102372.97;;;9.03;72.73
48015;BME280;33780;51.034;7.120;2023-02-04T02:11:32;102375.66;;;9.03;72.65
48015;BME280;33780;51.034;7.120;2023-02-04T02:13:58;102366.00;;;9.01;72.64
48015;BME280;33780;51.034;7.120;2023-02-04T02:16:24;102363.41;;;8.99;72.58
48015;BME280;33780;51.034;7.120;2023-02-04T02:18:49;102373.16;;;9.00;72.96
48015;BME280;33780;51.034;7.120;2023-02-04T02:21:27;102370.47;;;9.00;73.13
48015;BME280;33780;51.034;7.120;2023-02-04T02:23:55;102371.34;;;9.01;73.10
48015;BME280;33780;51.034;7.120;2023-02-04T02:26:22;102380.22;;;9.01;73.01
48015;BME280;33780;51.034;7.120;2023-02-04T02:28:51;102377.53;;;9.01;73.36
48015;BME280;33780;51.034;7.120;2023-02-04T02:31:19;102375.72;;;9.02;72.51
48015;BME280;33780;51.034;7.120;2023-02-04T02:33:46;102382.03;;;9.01;73.05
48015;BME280;33780;51.034;7.120;2023-02-04T02:36:14;102380.22;;;9.01;72.85
48015;BME280;33780;51.034;7.120;2023-02-04T02:38:40;102381.16;;;9.00;72.80
48015;BME280;33780;51.034;7.120;2023-02-04T02:41:08;102380.28;;;9.00;72.96
48015;BME280;33780;51.034;7.120;2023-02-04T02:43:35;102390.91;;;9.01;73.24
48015;BME280;33780;51.034;7.120;2023-02-04T02:46:03;102396.31;;;9.00;72.89
48015;BME280;33780;51.034;7.120;2023-02-04T02:48:29;102399.84;;;9.00;73.06
48015;BME280;33780;51.034;7.120;2023-02-04T02:50:55;102406.13;;;8.99;72.98
48015;BME280;33780;51.034;7.120;2023-02-04T02:53:20;102409.66;;;9.00;73.19
48015;BME280;33780;51.034;7.120;2023-02-04T02:55:55;102408.81;;;8.99;73.34
48015;BME280;33780;51.034;7.120;2023-02-04T02:58:32;102399.13;;;8.97;73.62
48015;BME280;33780;51.034;7.120;2023-02-04T03:01:05;102396.53;;;8.95;73.45
48015;BME280;33780;51.034;7.120;2023-02-04T03:03:39;102401.00;;;8.95;73.82
48015;BME280;33780;51.034;7.120;2023-02-04T03:06:09;102397.56;;;8.93;73.84
48015;BME280;33780;51.034;7.120;2023-02-04T03:08:39;102398.41;;;8.93;73.96
48015;BME280;33780;51.034;7.120;2023-02-04T03:11:08;102399.38;;;8.92;74.12
48015;BME280;33780;51.034;7.120;2023-02-04T03:13:34;102412.72;;;8.92;74.06
48015;BME280;33780;51.034;7.120;2023-02-04T03:16:03;102411.84;;;8.92;74.55
48015;BME280;33780;51.034;7.120;2023-02-04T03:18:29;102419.88;;;8.92;74.14
48015;BME280;33780;51.034;7.120;2023-02-04T03:20:55;102424.34;;;8.91;74.61
48015;BME280;33780;51.034;7.120;2023-02-04T03:23:21;102419.16;;;8.88;74.29
48015;BME280;33780;51.034;7.120;2023-02-04T03:25:46;102422.78;;;8.87;74.53
48015;BME280;33780;51.034;7.120;2023-02-04T03:28:11;102428.19;;;8.86;74.56
48015;BME280;33780;51.034;7.120;2023-02-04T03:30:37;102432.69;;;8.85;74.98
48015;BME280;33780;51.034;7.120;2023-02-04T03:33:02;102433.69;;;8.83;74.74
48015;BME280;33780;51.034;7.120;2023-02-04T03:35:28;102446.19;;;8.82;74.95
48015;BME280;33780;51.034;7.120;2023-02-04T03:37:53;102439.97;;;8.82;75.08
48015;BME280;33780;51.034;7.120;2023-02-04T03:40:19;102439.97;;;8.82;75.00
48015;BME280;33780;51.034;7.120;2023-02-04T03:42:44;102440.84;;;8.82;74.92
48015;BME280;33780;51.034;7.120;2023-02-04T03:45:10;102435.59;;;8.81;75.10
48015;BME280;33780;51.034;7.120;2023-02-04T03:47:35;102436.50;;;8.79;75.12
48015;BME280;33780;51.034;7.120;2023-02-04T03:50:01;102437.44;;;8.78;75.16
48015;BME280;33780;51.034;7.120;2023-02-04T03:52:26;102434.84;;;8.77;74.88
48015;BME280;33780;51.034;7.120;2023-02-04T03:54:51;102431.31;;;8.76;75.40
48015;BME280;33780;51.034;7.120;2023-02-04T03:57:17;102442.09;;;8.75;75.59
48015;BME280;33780;51.034;7.120;2023-02-04T03:59:43;102428.81;;;8.73;75.71
48015;BME280;33780;51.034;7.120;2023-02-04T04:02:08;102435.88;;;8.74;75.53
48015;BME280;33780;51.034;7.120;2023-02-04T04:04:34;102437.75;;;8.72;75.22
48015;BME280;33780;51.034;7.120;2023-02-04T04:07:00;102443.97;;;8.73;75.72
48015;BME280;33780;51.034;7.120;2023-02-04T04:09:25;102438.63;;;8.73;75.42
48015;BME280;33780;51.034;7.120;2023-02-04T04:11:51;102442.16;;;8.73;75.40
48015;BME280;33780;51.034;7.120;2023-02-04T04:14:17;102443.09;;;8.72;75.38
48015;BME280;33780;51.034;7.120;2023-02-04T04:16:45;102451.13;;;8.72;75.53
48015;BME280;33780;51.034;7.120;2023-02-04T04:19:11;102455.59;;;8.72;75.51
48015;BME280;33780;51.034;7.120;2023-02-04T04:21:36;102443.19;;;8.71;75.60
48015;BME280;33780;51.034;7.120;2023-02-04T04:24:02;102449.47;;;8.70;75.44
48015;BME280;33780;51.034;7.120;2023-02-04T04:26:30;102454.81;;;8.70;75.36
48015;BME280;33780;51.034;7.120;2023-02-04T04:28:58;102452.22;;;8.68;75.83
48015;BME280;33780;51.034;7.120;2023-02-04T04:31:24;102454.97;;;8.67;75.83
48015;BME280;33780;51.034;7.120;2023-02-04T04:33:55;102456.84;;;8.65;76.00
48015;BME280;33780;51.034;7.120;2023-02-04T04:36:21;102464.00;;;8.64;76.04
48015;BME280;33780;51.034;7.120;2023-02-04T04:38:46;102465.78;;;8.64;75.67
48015;BME280;33780;51.034;7.120;2023-02-04T04:41:12;102474.66;;;8.64;75.76
48015;BME280;33780;51.034;7.120;2023-02-04T04:43:40;102476.56;;;8.62;75.96
48015;BME280;33780;51.034;7.120;2023-02-04T04:46:06;102488.09;;;8.63;75.99
48015;BME280;33780;51.034;7.120;2023-02-04T04:48:31;102488.09;;;8.63;76.14
48015;BME280;33780;51.034;7.120;2023-02-04T04:50:56;102490.81;;;8.61;76.08
48015;BME280;33780;51.034;7.120;2023-02-04T04:53:22;102492.59;;;8.61;75.81
48015;BME280;33780;51.034;7.120;2023-02-04T04:55:50;102496.13;;;8.61;76.10
48015;BME280;33780;51.034;7.120;2023-02-04T04:58:19;102494.41;;;8.60;75.89
48015;BME280;33780;51.034;7.120;2023-02-04T05:00:44;102497.06;;;8.60;76.35
48015;BME280;33780;51.034;7.120;2023-02-04T05:03:09;102493.63;;;8.58;76.23
48015;BME280;33780;51.034;7.120;2023-02-04T05:05:35;102496.28;;;8.58;76.43
48015;BME280;33780;51.034;7.120;2023-02-04T05:08:05;102502.56;;;8.57;76.45
48015;BME280;33780;51.034;7.120;2023-02-04T05:10:31;102507.03;;;8.57;76.26
48015;BME280;33780;51.034;7.120;2023-02-04T05:12:56;102504.38;;;8.57;76.58
48015;BME280;33780;51.034;7.120;2023-02-04T05:15:22;102485.69;;;8.57;76.21
48015;BME280;33780;51.034;7.120;2023-02-04T05:17:47;102496.38;;;8.57;76.69
48015;BME280;33780;51.034;7.120;2023-02-04T05:20:12;102495.50;;;8.56;76.46
48015;BME280;33780;51.034;7.120;2023-02-04T05:22:37;102499.03;;;8.57;76.84
48015;BME280;33780;51.034;7.120;2023-02-04T05:25:03;102502.66;;;8.56;76.50
48015;BME280;33780;51.034;7.120;2023-02-04T05:27:28;102502.72;;;8.54;76.54
48015;BME280;33780;51.034;7.120;2023-02-04T05:29:53;102516.94;;;8.55;76.75
48015;BME280;33780;51.034;7.120;2023-02-04T05:32:19;102511.59;;;8.55;76.82
48015;BME280;33780;51.034;7.120;2023-02-04T05:34:44;102520.38;;;8.57;76.68
48015;BME280;33780;51.034;7.120;2023-02-04T05:37:09;102522.13;;;8.58;76.56
48015;BME280;33780;51.034;7.120;2023-02-04T05:39:35;102524.72;;;8.59;76.91
48015;BME280;33780;51.034;7.120;2023-02-04T05:42:00;102518.44;;;8.60;76.63
48015;BME280;33780;51.034;7.120;2023-02-04T05:44:25;102520.16;;;8.61;76.80
48015;BME280;33780;51.034;7.120;2023-02-04T05:46:51;102517.50;;;8.61;76.62
48015;BME280;33780;51.034;7.120;2023-02-04T05:49:16;102526.38;;;8.62;76.36
48015;BME280;33780;51.034;7.120;2023-02-04T05:51:41;102533.44;;;8.63;76.70
48015;BME280;33780;51.034;7.120;2023-02-04T05:54:07;102533.44;;;8.63;77.11
48015;BME280;33780;51.034;7.120;2023-02-04T05:56:32;102533.44;;;8.63;77.00
48015;BME280;33780;51.034;7.120;2023-02-04T05:58:57;102532.72;;;8.59;76.51
48015;BME280;33780;51.034;7.120;2023-02-04T06:01:23;102544.25;;;8.60;77.08
48015;BME280;33780;51.034;7.120;2023-02-04T06:03:48;102546.84;;;8.61;76.79
48015;BME280;33780;51.034;7.120;2023-02-04T06:06:13;102550.41;;;8.62;76.74
48015;BME280;33780;51.034;7.120;2023-02-04T06:08:38;102560.19;;;8.61;76.78
48015;BME280;33780;51.034;7.120;2023-02-04T06:11:04;102556.66;;;8.61;76.80
48015;BME280;33780;51.034;7.120;2023-02-04T06:13:30;102554.94;;;8.60;76.78
48015;BME280;33780;51.034;7.120;2023-02-04T06:15:55;102559.41;;;8.59;77.21
48015;BME280;33780;51.034;7.120;2023-02-04T06:18:20;102564.66;;;8.61;77.03
48015;BME280;33780;51.034;7.120;2023-02-04T06:20:46;102562.84;;;8.61;77.15
48015;BME280;33780;51.034;7.120;2023-02-04T06:23:11;102570.88;;;8.61;77.15
48015;BME280;33780;51.034;7.120;2023-02-04T06:25:36;102575.28;;;8.62;76.92
48015;BME280;33780;51.034;7.120;2023-02-04T06:28:02;102583.22;;;8.64;76.81
48015;BME280;33780;51.034;7.120;2023-02-04T06:30:27;102588.63;;;8.62;76.60
48015;BME280;33780;51.034;7.120;2023-02-04T06:32:52;102592.22;;;8.61;77.05
48015;BME280;33780;51.034;7.120;2023-02-04T06:35:18;102585.22;;;8.59;77.07
48015;BME280;33780;51.034;7.120;2023-02-04T06:37:43;102595.09;;;8.57;77.18
48015;BME280;33780;51.034;7.120;2023-02-04T06:40:09;102596.91;;;8.56;76.79
48015;BME280;33780;51.034;7.120;2023-02-04T06:42:35;102587.97;;;8.57;76.81
48015;BME280;33780;51.034;7.120;2023-02-04T06:45:00;102589.78;;;8.57;77.15
48015;BME280;33780;51.034;7.120;2023-02-04T06:47:25;102594.09;;;8.59;76.81
48015;BME280;33780;51.034;7.120;2023-02-04T06:49:51;102595.91;;;8.59;76.68
48015;BME280;33780;51.034;7.120;2023-02-04T06:52:16;102596.75;;;8.59;76.76
48015;BME280;33780;51.034;7.120;2023-02-04T06:54:41;102591.41;;;8.59;77.24
48015;BME280;33780;51.034;7.120;2023-02-04T06:57:07;102597.69;;;8.58;77.17
48015;BME280;33780;51.034;7.120;2023-02-04T06:59:36;102593.22;;;8.59;77.10
48015;BME280;33780;51.034;7.120;2023-02-04T07:02:03;102590.56;;;8.59;77.38
48015;BME280;33780;51.034;7.120;2023-02-04T07:04:28;102602.97;;;8.60;77.06
48015;BME280;33780;51.034;7.120;2023-02-04T07:06:54;102595.03;;;8.58;77.52
48015;BME280;33780;51.034;7.120;2023-02-04T07:09:19;102602.16;;;8.58;76.98
48015;BME280;33780;51.034;7.120;2023-02-04T07:11:44;102601.22;;;8.59;77.10
48015;BME280;33780;51.034;7.120;2023-02-04T07:14:10;102598.56;;;8.59;77.38
48015;BME280;33780;51.034;7.120;2023-02-04T07:16:36;102597.63;;;8.60;77.03
48015;BME280;33780;51.034;7.120;2023-02-04T07:19:01;102606.56;;;8.59;77.22
48015;BME280;33780;51.034;7.120;2023-02-04T07:21:27;102604.75;;;8.59;77.31
48015;BME280;33780;51.034;7.120;2023-02-04T07:23:52;102621.66;;;8.60;77.20
48015;BME280;33780;51.034;7.120;2023-02-04T07:26:18;102624.31;;;8.60;77.06
48015;BME280;33780;51.034;7.120;2023-02-04T07:28:43;102625.25;;;8.59;76.92
48015;BME280;33780;51.034;7.120;2023-02-04T07:31:09;102621.72;;;8.58;77.09
48015;BME280;33780;51.034;7.120;2023-02-04T07:33:34;102629.72;;;8.58;77.24
48015;BME280;33780;51.034;7.120;2023-02-04T07:35:59;102628.84;;;8.58;77.44
48015;BME280;33780;51.034;7.120;2023-02-04T07:38:25;102630.66;;;8.57;77.24
48015;BME280;33780;51.034;7.120;2023-02-04T07:40:50;102636.88;;;8.58;77.36
48015;BME280;33780;51.034;7.120;2023-02-04T07:43:15;102641.34;;;8.57;77.70
48015;BME280;33780;51.034;7.120;2023-02-04T07:45:40;102641.34;;;8.57;77.66
48015;BME280;33780;51.034;7.120;2023-02-04T07:48:06;102643.13;;;8.57;77.74
48015;BME280;33780;51.034;7.120;2023-02-04T07:50:31;102644.00;;;8.57;77.72
48015;BME280;33780;51.034;7.120;2023-02-04T07:53:06;102645.81;;;8.57;77.69
48015;BME280;33780;51.034;7.120;2023-02-04T07:55:42;102653.81;;;8.57;77.82
48015;BME280;33780;51.034;7.120;2023-02-04T07:58:10;102655.47;;;8.59;77.75
48015;BME280;33780;51.034;7.120;2023-02-04T08:00:35;102656.34;;;8.60;78.10
48015;BME280;33780;51.034;7.120;2023-02-04T08:03:00;102660.72;;;8.61;77.62
48015;BME280;33780;51.034;7.120;2023-02-04T08:05:26;102662.50;;;8.62;77.80
48015;BME280;33780;51.034;7.120;2023-02-04T08:07:55;102656.22;;;8.63;77.63
48015;BME280;33780;51.034;7.120;2023-02-04T08:10:22;102659.69;;;8.65;77.72
48015;BME280;33780;51.034;7.120;2023-02-04T08:12:48;102660.53;;;8.65;77.58
48015;BME280;33780;51.034;7.120;2023-02-04T08:15:13;102664.00;;;8.67;77.99
48015;BME280;33780;51.034;7.120;2023-02-04T08:17:39;102659.53;;;8.68;77.95
48015;BME280;33780;51.034;7.120;2023-02-04T08:20:04;102668.31;;;8.70;77.96
48015;BME280;33780;51.034;7.120;2023-02-04T08:22:30;102661.19;;;8.70;77.81
48015;BME280;33780;51.034;7.120;2023-02-04T08:24:55;102669.13;;;8.72;77.97
48015;BME280;33780;51.034;7.120;2023-02-04T08:27:20;102667.25;;;8.74;77.91
48015;BME280;33780;51.034;7.120;2023-02-04T08:29:45;102676.03;;;8.76;77.61
48015;BME280;33780;51.034;7.120;2023-02-04T08:32:11;102677.78;;;8.77;77.36
48015;BME280;33780;51.034;7.120;2023-02-04T08:34:38;102679.41;;;8.79;77.60
48015;BME280;33780;51.034;7.120;2023-02-04T08:37:03;102684.72;;;8.81;77.47
48015;BME280;33780;51.034;7.120;2023-02-04T08:39:28;102689.91;;;8.84;77.50
48015;BME280;33780;51.034;7.120;2023-02-04T08:41:54;102688.97;;;8.85;77.53
48015;BME280;33780;51.034;7.120;2023-02-04T08:44:19;102686.22;;;8.87;77.48
48015;BME280;33780;51.034;7.120;2023-02-04T08:46:47;102686.16;;;8.88;77.49
48015;BME280;33780;51.034;7.120;2023-02-04T08:49:13;102694.94;;;8.90;77.46
48015;BME280;33780;51.034;7.120;2023-02-04T08:51:38;102702.88;;;8.92;77.16
48015;BME280;33780;51.034;7.120;2023-02-04T08:54:03;102692.06;;;8.95;77.71
48015;BME280;33780;51.034;7.120;2023-02-04T08:56:29;102693.78;;;8.96;77.34
48015;BME280;33780;51.034;7.120;2023-02-04T08:58:55;102711.50;;;8.98;77.31
48015;BME280;33780;51.034;7.120;2023-02-04T09:01:20;102703.41;;;9.00;77.47
48015;BME280;33780;51.034;7.120;2023-02-04T09:03:51;102705.06;;;9.02;77.34
48015;BME280;33780;51.034;7.120;2023-02-04T09:06:17;102707.72;;;9.02;77.32
48015;BME280;33780;51.034;7.120;2023-02-04T09:08:43;102712.22;;;9.02;77.02
48015;BME280;33780;51.034;7.120;2023-02-04T09:11:08;102717.47;;;9.03;77.18
48015;BME280;33780;51.034;7.120;2023-02-04T09:13:37;102727.22;;;9.04;77.06
48015;BME280;33780;51.034;7.120;2023-02-04T09:16:06;102729.09;;;9.02;76.81
48015;BME280;33780;51.034;7.120;2023-02-04T09:18:31;102731.91;;;8.99;76.67
48015;BME280;33780;51.034;7.120;2023-02-04T09:20:57;102726.66;;;8.98;76.53
48015;BME280;33780;51.034;7.120;2023-02-04T09:23:23;102731.06;;;8.99;76.88
48015;BME280;33780;51.034;7.120;2023-02-04T09:25:49;102727.50;;;8.98;76.45
48015;BME280;33780;51.034;7.120;2023-02-04T09:28:14;102734.59;;;8.99;76.77
48015;BME280;33780;51.034;7.120;2023-02-04T09:30:42;102737.97;;;9.03;76.93
48015;BME280;33780;51.034;7.120;2023-02-04T09:33:08;102739.56;;;9.07;76.86
48015;BME280;33780;51.034;7.120;2023-02-04T09:35:34;102742.16;;;9.08;76.57
48015;BME280;33780;51.034;7.120;2023-02-04T09:38:00;102745.59;;;9.11;76.70
48015;BME280;33780;51.034;7.120;2023-02-04T09:40:29;102747.34;;;9.12;76.65
48015;BME280;33780;51.034;7.120;2023-02-04T09:42:57;102746.28;;;9.16;76.54
48015;BME280;33780;51.034;7.120;2023-02-04T09:45:26;102745.19;;;9.20;76.96
48015;BME280;33780;51.034;7.120;2023-02-04T09:47:53;102747.78;;;9.21;76.53
48015;BME280;33780;51.034;7.120;2023-02-04T09:50:21;102750.38;;;9.23;76.23
48015;BME280;33780;51.034;7.120;2023-02-04T09:52:49;102753.75;;;9.26;76.53
48015;BME280;33780;51.034;7.120;2023-02-04T09:55:18;102750.94;;;9.29;76.83
48015;BME280;33780;51.034;7.120;2023-02-04T09:57:44;102760.63;;;9.32;76.38
48015;BME280;33780;51.034;7.120;2023-02-04T10:00:21;102753.41;;;9.34;76.12
48015;BME280;33780;51.034;7.120;2023-02-04T10:02:48;102763.00;;;9.38;76.51
48015;BME280;33780;51.034;7.120;2023-02-04T10:05:24;102765.59;;;9.39;76.01
48015;BME280;33780;51.034;7.120;2023-02-04T10:07:51;102761.91;;;9.42;76.26
48015;BME280;33780;51.034;7.120;2023-02-04T10:10:22;102768.91;;;9.45;75.98
48015;BME280;33780;51.034;7.120;2023-02-04T10:12:51;102775.03;;;9.47;75.79
48015;BME280;33780;51.034;7.120;2023-02-04T10:15:18;102778.59;;;9.47;76.09
48015;BME280;33780;51.034;7.120;2023-02-04T10:17:45;102774.91;;;9.50;75.99
48015;BME280;33780;51.034;7.120;2023-02-04T10:22:59;102778.28;;;9.72;75.54
48015;BME280;33780;51.034;7.120;2023-02-04T10:25:25;102775.53;;;9.74;75.49
48015;BME280;33780;51.034;7.120;2023-02-04T10:27:56;102779.06;;;9.74;75.11
48015;BME280;33780;51.034;7.120;2023-02-04T10:30:30;102779.94;;;9.75;75.11
48015;BME280;33780;51.034;7.120;2023-02-04T10:32:58;102767.50;;;9.74;74.75
48015;BME280;33780;51.034;7.120;2023-02-04T10:35:23;102781.16;;;9.67;73.52
48015;BME280;33780;51.034;7.120;2023-02-04T10:38:05;102765.34;;;9.63;74.14
48015;BME280;33780;51.034;7.120;2023-02-04T10:40:43;102775.19;;;9.62;73.25
48015;BME280;33780;51.034;7.120;2023-02-04T10:43:22;102765.44;;;9.61;73.76
48015;BME280;33780;51.034;7.120;2023-02-04T10:49:32;102773.44;;;9.61;73.84
48015;BME280;33780;51.034;7.120;2023-02-04T10:52:18;102768.97;;;9.62;73.58
48015;BME280;33780;51.034;7.120;2023-02-04T10:54:55;102770.63;;;9.64;74.10
48015;BME280;33780;51.034;7.120;2023-02-04T10:57:25;102771.41;;;9.66;74.34
48015;BME280;33780;51.034;7.120;2023-02-04T10:59:57;102774.88;;;9.68;73.60
48015;BME280;33780;51.034;7.120;2023-02-04T11:05:18;102769.22;;;9.75;73.94
48015;BME280;33780;51.034;7.120;2023-02-04T11:07:45;102772.69;;;9.77;73.19
48015;BME280;33780;51.034;7.120;2023-02-04T11:10:29;102771.84;;;9.76;72.68
48015;BME280;33780;51.034;7.120;2023-02-04T11:18:55;102770.66;;;9.82;73.15
48015;BME280;33780;51.034;7.120;2023-02-04T11:21:26;102774.03;;;9.85;73.46
48015;BME280;33780;51.034;7.120;2023-02-04T11:26:46;102780.03;;;9.90;73.97
48015;BME280;33780;51.034;7.120;2023-02-04T11:29:34;102780.81;;;9.92;73.77
48015;BME280;33780;51.034;7.120;2023-02-04T11:32:27;102779.97;;;9.92;73.62
48015;BME280;33780;51.034;7.120;2023-02-04T11:34:52;102779.97;;;9.92;73.79
48015;BME280;33780;51.034;7.120;2023-02-04T11:37:39;102774.69;;;9.90;73.96
48015;BME280;33780;51.034;7.120;2023-02-04T11:40:25;102778.31;;;9.89;73.57
48015;BME280;33780;51.034;7.120;2023-02-04T11:42:56;102779.25;;;9.88;73.29
48015;BME280;33780;51.034;7.120;2023-02-04T11:45:31;102773.09;;;9.86;73.17
48015;BME280;33780;51.034;7.120;2023-02-04T11:47:59;102776.72;;;9.85;73.24
48015;BME280;33780;51.034;7.120;2023-02-04T11:50:31;102773.94;;;9.87;73.45
48015;BME280;33780;51.034;7.120;2023-02-04T11:52:58;102778.31;;;9.89;73.35
48015;BME280;33780;51.034;7.120;2023-02-04T12:00:37;102771.53;;;9.99;73.40
48015;BME280;33780;51.034;7.120;2023-02-04T12:03:25;102778.38;;;10.05;73.62
48015;BME280;33780;51.034;7.120;2023-02-04T12:05:52;102781.78;;;10.09;72.97
48015;BME280;33780;51.034;7.120;2023-02-04T12:08:24;102777.13;;;10.12;73.48
48015;BME280;33780;51.034;7.120;2023-02-04T12:11:05;102771.63;;;10.15;73.26
48015;BME280;33780;51.034;7.120;2023-02-04T12:14:07;102777.84;;;10.16;73.00
48015;BME280;33780;51.034;7.120;2023-02-04T12:16:48;102779.56;;;10.17;72.67
48015;BME280;33780;51.034;7.120;2023-02-04T12:19:17;102778.69;;;10.16;72.92
48015;BME280;33780;51.034;7.120;2023-02-04T12:21:42;102782.16;;;10.18;72.86
48015;BME280;33780;51.034;7.120;2023-02-04T12:24:08;102781.31;;;10.18;72.41
48015;BME280;33780;51.034;7.120;2023-02-04T12:26:34;102788.25;;;10.22;72.72
48015;BME280;33780;51.034;7.120;2023-02-04T12:28:59;102778.53;;;10.19;71.88
48015;BME280;33780;51.034;7.120;2023-02-04T12:32:17;102785.63;;;10.20;71.92
48015;BME280;33780;51.034;7.120;2023-02-04T12:34:59;102774.06;;;10.20;72.34
48015;BME280;33780;51.034;7.120;2023-02-04T12:40:30;102777.59;;;10.20;70.99
48015;BME280;33780;51.034;7.120;2023-02-04T12:43:06;102778.50;;;10.21;71.74
48015;BME280;33780;51.034;7.120;2023-02-04T12:45:32;102780.22;;;10.22;71.77
48015;BME280;33780;51.034;7.120;2023-02-04T12:47:58;102784.72;;;10.21;71.45
48015;BME280;33780;51.034;7.120;2023-02-04T12:53:54;102782.78;;;10.25;71.90
48015;BME280;33780;51.034;7.120;2023-02-04T12:56:24;102781.75;;;10.27;72.28
48015;BME280;33780;51.034;7.120;2023-02-04T12:58:51;102783.31;;;10.32;71.36
48015;BME280;33780;51.034;7.120;2023-02-04T13:04:43;102775.03;;;10.36;71.61
48015;BME280;33780;51.034;7.120;2023-02-04T13:11:00;102782.81;;;10.41;70.56
48015;BME280;33780;51.034;7.120;2023-02-04T13:17:12;102770.25;;;10.43;69.28
48015;BME280;33780;51.034;7.120;2023-02-04T13:19:40;102771.09;;;10.43;70.14
48015;BME280;33780;51.034;7.120;2023-02-04T13:22:12;102781.81;;;10.43;70.31
48015;BME280;33780;51.034;7.120;2023-02-04T13:24:39;102777.63;;;10.38;68.21
48015;BME280;33780;51.034;7.120;2023-02-04T13:27:11;102781.16;;;10.38;68.93
48015;BME280;33780;51.034;7.120;2023-02-04T13:29:39;102781.34;;;10.35;68.56
48015;BME280;33780;51.034;7.120;2023-02-04T13:32:10;102780.47;;;10.35;68.16
48015;BME280;33780;51.034;7.120;2023-02-04T13:34:35;102787.56;;;10.36;68.79
48015;BME280;33780;51.034;7.120;2023-02-04T13:37:01;102782.97;;;10.38;69.31
48015;BME280;33780;51.034;7.120;2023-02-04T13:39:27;102769.44;;;10.41;69.36
48015;BME280;33780;51.034;7.120;2023-02-04T13:41:52;102768.34;;;10.45;69.64
48015;BME280;33780;51.034;7.120;2023-02-04T13:44:17;102777.00;;;10.50;69.32